Time;durP1;ratioP1;P1;durP2;ratioP2;P2;SDS_P1;SDS_P2;PMS_P1;PMS_P2;Temp;Humidity;BMP_temperature;BMP_pressure;BME280_temperature;BME280_humidity;BME280_pressure;Samples;Min_cycle;Max_cycle;Signal;HPM_P1;HPM_P2
2023/01/26 00:01:20;;;;;;;;;65.00;48.75;;;;;4.73;100.00;102081.94;5081931;27;45857;-82
2023/01/26 00:03:46;;;;;;;;;66.75;48.00;;;;;4.51;100.00;102033.22;5077679;27;45781;-82
2023/01/26 00:06:14;;;;;;;;;71.00;50.75;;;;;4.32;100.00;102002.25;5072892;27;45593;-82
2023/01/26 00:08:46;;;;;;;;;71.25;51.00;;;;;4.74;100.00;102071.91;5053447;28;46811;-82
2023/01/26 00:11:14;;;;;;;;;60.00;46.75;;;;;4.31;100.00;101995.13;5065920;27;45488;-83
2023/01/26 00:13:40;;;;;;;;;73.75;50.25;;;;;4.72;100.00;102068.47;5073582;27;45718;-81
2023/01/26 00:16:13;;;;;;;;;67.00;48.50;;;;;4.41;100.00;102006.84;5071975;28;45473;-81
2023/01/26 00:18:40;;;;;;;;;69.00;49.25;;;;;4.69;100.00;102050.56;5053799;27;46994;-83
2023/01/26 00:21:07;;;;;;;;;75.25;48.25;;;;;4.44;100.00;102010.31;5051689;28;45743;-84
2023/01/26 00:23:34;;;;;;;;;69.50;48.75;;;;;4.60;100.00;102054.97;5078627;27;45850;-83
2023/01/26 00:26:00;;;;;;;;;67.25;50.25;;;;;4.50;100.00;102020.63;5079777;27;45540;-82
2023/01/26 00:28:27;;;;;;;;;63.25;47.75;;;;;4.59;100.00;102030.66;5086702;27;46865;-81
2023/01/26 00:30:53;;;;;;;;;63.75;47.00;;;;;4.45;100.00;102002.03;5072278;28;45546;-82
2023/01/26 00:33:18;;;;;;;;;62.75;45.25;;;;;4.53;100.00;102014.91;5071831;27;46030;-81
2023/01/26 00:35:53;;;;;;;;;57.50;44.00;;;;;4.39;100.00;101992.56;5053695;28;45864;-82
2023/01/26 00:38:18;;;;;;;;;68.00;47.25;;;;;4.76;100.00;102030.00;5066573;27;47150;-82
2023/01/26 00:40:44;;;;;;;;;61.25;46.00;;;;;4.69;100.00;102012.53;5053924;27;45841;-81
2023/01/26 00:43:10;;;;;;;;;68.00;46.25;;;;;4.61;100.00;101979.78;5062859;28;45735;-82
2023/01/26 00:45:35;;;;;;;;;61.25;48.50;;;;;4.88;100.00;102019.88;5056447;28;45814;-81
2023/01/26 00:48:01;;;;;;;;;60.75;45.00;;;;;4.75;100.00;101989.38;5082706;27;45771;-80
2023/01/26 00:50:27;;;;;;;;;65.50;48.00;;;;;4.50;100.00;101939.13;5067977;27;45935;-82
2023/01/26 00:52:52;;;;;;;;;61.50;46.75;;;;;4.70;100.00;101975.34;5060029;28;45383;-82
2023/01/26 00:55:18;;;;;;;;;71.00;51.25;;;;;4.77;100.00;101987.38;5060258;28;45947;-80
2023/01/26 00:57:44;;;;;;;;;71.75;52.75;;;;;4.33;100.00;101921.66;5067417;28;46532;-82
2023/01/26 01:00:15;;;;;;;;;73.00;52.75;;;;;4.43;100.00;101946.97;5082038;27;45795;-81
2023/01/26 01:02:42;;;;;;;;;71.00;48.75;;;;;4.76;100.00;101996.53;5065645;28;45296;-82
2023/01/26 01:05:08;;;;;;;;;64.75;49.00;;;;;4.62;100.00;101969.75;5060356;28;46017;-80
2023/01/26 01:07:34;;;;;;;;;57.75;47.50;;;;;4.58;100.00;101975.47;5070295;27;45402;-81
2023/01/26 01:09:59;;;;;;;;;68.50;47.25;;;;;4.70;100.00;101984.38;5056957;28;45657;-82
2023/01/26 01:12:25;;;;;;;;;65.75;49.25;;;;;4.40;100.00;101939.09;5063911;28;45841;-81
2023/01/26 01:14:51;;;;;;;;;62.75;47.25;;;;;4.59;100.00;101976.31;5075270;27;45864;-82
2023/01/26 01:17:16;;;;;;;;;70.25;48.25;;;;;4.63;100.00;101983.22;5071325;27;45554;-81
2023/01/26 01:19:42;;;;;;;;;69.50;49.00;;;;;4.62;100.00;101975.19;5073864;27;45507;-82
2023/01/26 01:22:08;;;;;;;;;65.00;47.50;;;;;4.40;100.00;101948.13;5074736;27;45517;-83
2023/01/26 01:24:36;;;;;;;;;67.00;48.75;;;;;4.59;100.00;101981.75;5050211;28;46024;-83
2023/01/26 01:27:02;;;;;;;;;71.50;49.00;;;;;4.66;100.00;101982.94;5056271;28;46168;-84
2023/01/26 01:29:28;;;;;;;;;63.50;48.50;;;;;4.63;100.00;101966.91;5073464;28;45321;-83
2023/01/26 01:31:57;;;;;;;;;64.75;48.50;;;;;4.58;100.00;101947.44;5078950;27;45317;-82
2023/01/26 01:34:23;;;;;;;;;64.25;46.25;;;;;4.81;100.00;101974.38;5092564;27;45524;-81
2023/01/26 01:36:48;;;;;;;;;67.50;48.00;;;;;4.89;100.00;101979.97;5076380;27;46812;-84
2023/01/26 01:39:14;;;;;;;;;74.50;51.00;;;;;4.72;100.00;101938.88;5053247;28;46045;-82
2023/01/26 01:41:39;;;;;;;;;64.25;46.75;;;;;4.81;100.00;101956.22;5059640;28;45772;-83
2023/01/26 01:44:11;;;;;;;;;65.25;49.00;;;;;4.93;100.00;101973.25;5075482;28;45414;-81
2023/01/26 01:46:38;;;;;;;;;60.75;41.00;;;;;4.99;100.00;101975.41;5076410;27;47006;-81
2023/01/26 01:49:25;;;;;;;;;62.75;46.25;;;;;4.77;100.00;101944.78;5063763;28;45775;-83
2023/01/26 01:52:09;;;;;;;;;63.50;48.00;;;;;4.99;100.00;101960.97;5089270;27;45841;-81
2023/01/26 01:54:49;;;;;;;;;66.50;49.00;;;;;4.91;100.00;101948.03;5061814;27;45684;-81
2023/01/26 01:57:26;;;;;;;;;64.25;47.25;;;;;4.70;100.00;101905.56;5076063;27;46246;-82
2023/01/26 02:00:01;;;;;;;;;65.50;50.50;;;;;4.80;100.00;101929.16;5075736;27;45739;-84
2023/01/26 02:02:34;;;;;;;;;69.75;52.50;;;;;4.83;100.00;101937.88;5078953;28;45588;-81
2023/01/26 02:05:11;;;;;;;;;70.25;52.75;;;;;4.97;100.00;101974.69;5077731;27;45798;-82
2023/01/26 02:07:37;;;;;;;;;65.00;46.25;;;;;4.90;100.00;101963.50;5073560;28;46646;-81
2023/01/26 02:10:19;;;;;;;;;73.25;50.00;;;;;4.83;100.00;101962.34;5058659;27;45468;-82
2023/01/26 02:12:55;;;;;;;;;64.50;46.25;;;;;4.88;100.00;101967.34;5070837;28;45706;-81
2023/01/26 02:15:21;;;;;;;;;62.00;48.00;;;;;4.64;100.00;101930.59;5072333;27;45801;-82
2023/01/26 02:17:47;;;;;;;;;70.00;47.75;;;;;4.78;100.00;101959.22;5045045;28;48448;-82
2023/01/26 02:20:25;;;;;;;;;68.75;48.25;;;;;4.75;100.00;101948.63;5052211;28;45824;-82
2023/01/26 02:22:56;;;;;;;;;70.25;48.75;;;;;4.87;100.00;101965.66;5074804;27;45766;-81
2023/01/26 02:25:51;;;;;;;;;65.00;49.25;;;;;4.89;100.00;101971.81;5065609;27;46610;-82
2023/01/26 02:28:19;;;;;;;;;65.25;49.50;;;;;4.67;100.00;101924.88;5069792;27;47064;-82
2023/01/26 02:30:46;;;;;;;;;60.25;41.25;;;;;4.69;100.00;101939.16;5074665;27;45748;-81
2023/01/26 02:33:19;;;;;;;;;70.00;50.50;;;;;4.65;100.00;101913.25;5057842;28;45849;-82
2023/01/26 02:35:44;;;;;;;;;61.50;44.50;;;;;4.81;100.00;101936.34;5073467;28;45716;-83
2023/01/26 02:38:10;;;;;;;;;64.75;46.00;;;;;4.93;100.00;101956.94;5057543;27;46809;-81
2023/01/26 02:41:09;;;;;;;;;69.75;48.00;;;;;4.93;100.00;101946.06;5056757;28;45419;-81
2023/01/26 02:43:36;;;;;;;;;67.50;49.75;;;;;4.73;100.00;101924.31;5062496;27;45828;-81
2023/01/26 02:46:01;;;;;;;;;69.25;48.50;;;;;4.71;100.00;101928.16;5074577;27;45960;-80
2023/01/26 02:51:11;;;;;;;;;54.00;39.25;;;;;4.69;100.00;101917.44;5074636;28;45770;-80
2023/01/26 02:53:36;;;;;;;;;61.50;45.50;;;;;4.76;100.00;101934.88;5055438;28;45955;-81
2023/01/26 02:56:02;;;;;;;;;73.75;51.00;;;;;4.81;100.00;101925.47;5060137;28;45906;-80
2023/01/26 02:58:33;;;;;;;;;73.00;51.00;;;;;4.88;100.00;101940.19;5073548;28;45621;-81
2023/01/26 03:00:59;;;;;;;;;70.00;49.50;;;;;4.63;100.00;101890.81;5074686;28;45497;-80
2023/01/26 03:03:40;;;;;;;;;58.75;42.25;;;;;4.76;100.00;101913.16;5056323;28;45823;-80
2023/01/26 03:06:10;;;;;;;;;68.50;48.25;;;;;4.58;100.00;101882.22;5074927;28;45941;-81
2023/01/26 03:08:36;;;;;;;;;62.25;46.25;;;;;4.73;100.00;101899.84;5052371;27;45538;-81
2023/01/26 03:11:03;;;;;;;;;68.00;47.50;;;;;4.84;100.00;101928.75;5066626;28;45761;-81
2023/01/26 03:13:29;;;;;;;;;66.75;49.75;;;;;4.67;100.00;101924.88;5071004;28;45946;-82
2023/01/26 03:15:54;;;;;;;;;72.25;49.50;;;;;4.60;100.00;101904.69;5055968;28;45875;-81
2023/01/26 03:29:29;;;;;;;;;62.75;45.25;;;;;4.48;100.00;101914.81;5080496;27;45757;-82
2023/01/26 03:32:00;;;;;;;;;67.75;48.00;;;;;4.42;100.00;101909.97;5059657;28;45427;-83
2023/01/26 03:34:29;;;;;;;;;63.75;48.00;;;;;4.37;100.00;101893.19;5044266;28;45547;-82
2023/01/26 03:37:05;;;;;;;;;62.50;45.00;;;;;4.50;100.00;101922.84;5062343;28;45929;-82
2023/01/26 03:56:17;;;;;;;;;65.50;45.50;;;;;4.67;100.00;101897.69;5074495;27;45448;-82
2023/01/26 03:58:51;;;;;;;;;61.50;46.25;;;;;4.38;100.00;101865.06;5077434;27;45394;-82
2023/01/26 04:01:24;;;;;;;;;59.50;44.00;;;;;4.36;100.00;101861.63;5077891;27;45494;-82
2023/01/26 04:09:35;;;;;;;;;;;;;;;;;;;;;
2023/01/26 04:12:04;;;;;;;;;55.25;41.00;;;;;4.56;100.00;101895.09;5080109;28;74951;-83
2023/01/26 04:22:49;;;;;;;;;55.75;38.50;;;;;4.53;100.00;101868.22;5076494;28;46183;-82
2023/01/26 04:25:18;;;;;;;;;61.50;43.00;;;;;4.68;100.00;101888.53;5058941;27;45704;-81
2023/01/26 04:27:52;;;;;;;;;59.75;47.00;;;;;4.67;100.00;101886.84;5059416;28;45438;-82
2023/01/26 04:30:26;;;;;;;;;62.25;44.25;;;;;4.78;100.00;101877.69;5078734;28;45584;-81
2023/01/26 04:32:55;;;;;;;;;58.25;41.50;;;;;4.63;100.00;101858.22;5080756;27;45667;-82
2023/01/26 04:35:24;;;;;;;;;55.00;41.50;;;;;4.44;100.00;101839.19;5059168;27;45610;-81
2023/01/26 04:37:55;;;;;;;;;56.75;43.50;;;;;4.71;100.00;101893.69;5081814;27;45540;-81
2023/01/26 04:40:24;;;;;;;;;57.00;44.25;;;;;4.40;100.00;101844.03;5068292;27;45502;-82
2023/01/26 04:42:49;;;;;;;;;57.50;40.00;;;;;4.30;100.00;101838.59;5064601;28;47062;-80
2023/01/26 04:45:18;;;;;;;;;60.00;46.00;;;;;4.38;100.00;101860.47;5066987;28;45323;-82
2023/01/26 04:47:50;;;;;;;;;59.25;44.50;;;;;4.19;100.00;101845.03;5061953;27;45390;-83
2023/01/26 04:50:33;;;;;;;;;62.75;45.00;;;;;4.26;100.00;101856.16;5078709;28;45733;-84
2023/01/26 04:53:11;;;;;;;;;63.50;48.00;;;;;4.42;100.00;101894.50;5062079;28;45733;-82
2023/01/26 04:56:15;;;;;;;;;;;;;;;;;;;;;
2023/01/26 04:58:41;;;;;;;;;63.00;49.75;;;;;3.94;100.00;101859.94;5065267;27;68014;-81
2023/01/26 05:01:12;;;;;;;;;64.50;48.25;;;;;4.04;100.00;101885.28;5058352;28;45969;-81
2023/01/26 05:03:38;;;;;;;;;66.00;49.75;;;;;4.10;100.00;101899.28;5055790;28;47070;-81
2023/01/26 05:06:04;;;;;;;;;70.00;49.75;;;;;3.71;100.00;101834.88;5084419;27;45782;-84
2023/01/26 05:08:32;;;;;;;;;67.50;50.25;;;;;3.93;100.00;101879.94;5078545;27;45421;-81
2023/01/26 05:10:57;;;;;;;;;59.25;48.00;;;;;4.00;100.00;101902.81;5057431;28;46016;-81
2023/01/26 05:13:24;;;;;;;;;71.25;51.75;;;;;3.97;100.00;101899.53;5043238;28;46877;-81
2023/01/26 05:15:50;;;;;;;;;65.00;48.00;;;;;3.69;100.00;101867.56;5071755;27;45477;-82
2023/01/26 05:18:19;;;;;;;;;75.25;53.25;;;;;3.75;100.00;101868.03;5090650;27;45386;-81
2023/01/26 05:20:48;;;;;;;;;75.75;55.50;;;;;3.84;100.00;101872.63;5066156;28;45639;-84
2023/01/26 05:23:14;;;;;;;;;69.00;48.50;;;;;3.93;100.00;101881.81;5071182;28;45436;-82
2023/01/26 05:26:02;;;;;;;;;68.75;51.25;;;;;3.97;100.00;101900.38;5086729;27;46000;-83
2023/01/26 05:28:28;;;;;;;;;63.00;48.00;;;;;3.75;100.00;101865.31;5067160;27;45422;-79
2023/01/26 05:30:54;;;;;;;;;60.00;42.75;;;;;3.96;100.00;101903.25;5068909;28;46581;-81
2023/01/26 05:33:20;;;;;;;;;62.50;49.50;;;;;3.64;100.00;101850.84;5089132;27;45433;-82
2023/01/26 05:35:58;;;;;;;;;60.75;47.00;;;;;3.43;100.00;101825.59;5090305;27;45709;-83
2023/01/26 05:38:46;;;;;;;;;;;;;;;;;;;;;
2023/01/26 05:41:54;;;;;;;;;68.75;48.00;;;;;3.64;100.00;101856.28;5099289;27;73140;-82
2023/01/26 05:44:28;;;;;;;;;72.50;50.25;;;;;3.93;100.00;101907.06;5045868;28;47121;-82
2023/01/26 05:46:54;;;;;;;;;63.50;49.25;;;;;3.64;100.00;101848.13;5071741;28;45747;-81
2023/01/26 05:49:19;;;;;;;;;59.00;45.00;;;;;3.64;100.00;101867.13;5087714;27;45524;-80
2023/01/26 05:51:45;;;;;;;;;72.00;51.00;;;;;3.53;100.00;101832.81;5077901;27;45730;-81
2023/01/26 05:54:10;;;;;;;;;63.25;44.75;;;;;3.86;100.00;101885.06;5060828;28;47147;-80
2023/01/26 05:56:36;;;;;;;;;60.75;46.75;;;;;3.85;100.00;101877.91;5070620;28;45204;-81
2023/01/26 05:59:33;;;;;;;;;62.00;47.00;;;;;3.78;100.00;101874.03;5092576;27;45175;-81
2023/01/26 06:01:59;;;;;;;;;63.00;46.00;;;;;3.76;100.00;101884.16;5084675;27;45327;-80
2023/01/26 06:04:31;;;;;;;;;63.50;45.75;;;;;3.82;100.00;101899.91;5072446;28;46842;-81
2023/01/26 06:07:04;;;;;;;;;68.00;49.00;;;;;3.84;100.00;101905.19;5079650;27;45359;-81
2023/01/26 06:09:29;;;;;;;;;65.25;45.50;;;;;3.78;100.00;101895.72;5072752;28;45843;-81
2023/01/26 06:11:56;;;;;;;;;61.25;45.00;;;;;3.72;100.00;101894.41;5072625;27;45870;-79
2023/01/26 06:14:22;;;;;;;;;67.25;48.25;;;;;3.61;100.00;101877.38;5075015;28;47721;-82
2023/01/26 06:16:53;;;;;;;;;62.00;46.00;;;;;3.42;100.00;101861.88;5101356;27;45472;-81
2023/01/26 06:19:30;;;;;;;;;65.50;49.00;;;;;3.65;100.00;101912.25;5101773;27;45409;-84
2023/01/26 06:21:56;;;;;;;;;64.25;45.75;;;;;3.76;100.00;101897.72;5087613;28;45735;-81
2023/01/26 06:24:22;;;;;;;;;64.00;46.50;;;;;3.87;100.00;101899.50;5067766;27;45474;-77
2023/01/26 06:26:54;;;;;;;;;62.75;46.00;;;;;3.97;100.00;101894.97;5048464;28;45727;-78
2023/01/26 06:29:20;;;;;;;;;76.25;48.50;;;;;3.77;100.00;101847.88;5086775;28;45446;-78
2023/01/26 06:31:45;;;;;;;;;66.75;48.50;;;;;3.82;100.00;101853.78;5088637;27;44874;-79
2023/01/26 06:34:11;;;;;;;;;66.00;46.50;;;;;4.00;100.00;101880.25;5085915;27;46664;-80
2023/01/26 06:36:36;;;;;;;;;65.75;48.25;;;;;4.08;100.00;101883.13;5078323;28;45543;-79
2023/01/26 06:39:02;;;;;;;;;67.00;46.25;;;;;4.18;100.00;101894.03;5078966;27;45461;-79
2023/01/26 06:41:34;;;;;;;;;29.25;17.25;;;;;4.18;100.00;101902.19;5086484;27;45272;-81
2023/01/26 06:43:59;;;;;;;;;68.75;50.00;;;;;4.13;100.00;101878.16;5092117;27;45920;-78
2023/01/26 06:46:25;;;;;;;;;60.00;46.25;;;;;4.29;100.00;101898.50;5075599;27;45742;-80
2023/01/26 06:48:51;;;;;;;;;63.75;48.00;;;;;4.40;100.00;101906.50;5079906;28;45839;-79
2023/01/26 06:51:19;;;;;;;;;65.25;47.00;;;;;4.42;100.00;101907.25;5055809;28;46698;-78
2023/01/26 06:53:52;;;;;;;;;60.75;42.25;;;;;4.41;100.00;101903.66;5082169;27;45544;-79
2023/01/26 06:56:18;;;;;;;;;59.25;42.75;;;;;4.46;100.00;101911.41;5081411;28;45821;-78
2023/01/26 06:58:44;;;;;;;;;60.25;45.75;;;;;4.44;100.00;101909.81;5085778;28;45382;-78
2023/01/26 07:01:15;;;;;;;;;58.50;46.75;;;;;4.32;100.00;101907.19;5082783;28;45363;-79
2023/01/26 07:03:43;;;;;;;;;53.75;38.50;;;;;4.16;100.00;101887.88;5071261;28;46063;-79
2023/01/26 07:06:15;;;;;;;;;53.50;41.75;;;;;4.19;100.00;101895.72;5040964;27;45370;-81
2023/01/26 07:08:43;;;;;;;;;65.00;44.00;;;;;4.19;100.00;101898.44;5053082;28;46010;-80
2023/01/26 07:11:10;;;;;;;;;59.50;41.00;;;;;4.21;100.00;101918.19;5061068;27;46851;-78
2023/01/26 07:13:35;;;;;;;;;60.50;41.00;;;;;4.17;100.00;101908.59;5061261;27;45854;-79
2023/01/26 07:16:02;;;;;;;;;57.75;44.50;;;;;4.12;100.00;101908.16;5090985;27;45707;-79
2023/01/26 07:18:28;;;;;;;;;58.00;44.00;;;;;4.02;100.00;101898.09;5068560;28;45403;-80
2023/01/26 07:20:58;;;;;;;;;56.25;40.75;;;;;3.98;100.00;101903.94;5080387;27;45771;-79
2023/01/26 07:23:24;;;;;;;;;57.25;41.75;;;;;4.06;100.00;101915.00;5063577;28;46871;-80
2023/01/26 07:25:49;;;;;;;;;58.75;42.25;;;;;3.98;100.00;101901.25;5059539;28;45420;-78
2023/01/26 07:28:15;;;;;;;;;59.50;46.00;;;;;4.02;100.00;101911.69;5067997;27;45902;-79
2023/01/26 07:30:43;;;;;;;;;60.25;43.50;;;;;4.07;100.00;101906.72;5071098;27;45600;-78
2023/01/26 07:33:09;;;;;;;;;58.50;42.00;;;;;4.05;100.00;101897.84;5052084;28;46460;-78
2023/01/26 07:35:34;;;;;;;;;59.25;44.00;;;;;4.09;100.00;101917.44;5071472;28;45559;-80
2023/01/26 07:38:03;;;;;;;;;55.00;39.00;;;;;4.14;100.00;101917.88;5077205;28;45808;-79
2023/01/26 07:40:36;;;;;;;;;58.00;42.50;;;;;4.11;100.00;101888.28;5066473;28;45812;-79
2023/01/26 07:43:01;;;;;;;;;52.50;38.00;;;;;4.35;100.00;101923.22;5045905;28;47207;-79
2023/01/26 07:45:31;;;;;;;;;62.00;41.50;;;;;4.42;100.00;101931.69;5055226;28;45332;-79
2023/01/26 07:47:59;;;;;;;;;54.50;41.75;;;;;4.12;100.00;101881.03;5051658;28;45922;-78
2023/01/26 07:50:25;;;;;;;;;50.25;37.00;;;;;4.48;100.00;101924.84;5046910;28;45799;-80
2023/01/26 07:52:51;;;;;;;;;58.00;43.75;;;;;4.27;100.00;101882.34;5054166;28;46218;-76
2023/01/26 07:55:19;;;;;;;;;55.00;41.50;;;;;4.64;100.00;101930.59;5053193;28;45450;-77
2023/01/26 07:57:49;;;;;;;;;53.50;41.00;;;;;4.76;100.00;101929.47;5044197;28;45820;-80
2023/01/26 08:00:18;;;;;;;;;50.75;37.75;;;;;4.82;100.00;101925.31;5053316;28;45603;-79
2023/01/26 08:02:44;;;;;;;;;58.25;45.00;;;;;4.90;100.00;101919.16;5052312;28;45577;-77
2023/01/26 08:05:09;;;;;;;;;59.00;41.50;;;;;4.85;100.00;101900.56;5045928;28;46182;-78
2023/01/26 08:07:35;;;;;;;;;65.25;46.25;;;;;5.04;100.00;101920.59;5052812;28;45468;-79
2023/01/26 08:10:00;;;;;;;;;57.50;48.00;;;;;5.24;100.00;101926.88;5034801;28;45834;-77
2023/01/26 08:12:26;;;;;;;;;59.25;41.00;;;;;5.30;100.00;101954.34;5031569;28;47159;-79
2023/01/26 08:14:51;;;;;;;;;51.00;37.75;;;;;5.28;100.00;101931.91;5037571;28;45904;-77
2023/01/26 08:17:17;;;;;;;;;56.50;41.25;;;;;5.48;100.00;101951.75;5053801;28;45665;-80
2023/01/26 08:19:46;;;;;;;;;61.25;42.50;;;;;5.52;100.00;101951.47;5044342;28;45600;-78
2023/01/26 08:22:12;;;;;;;;;53.75;39.25;;;;;5.64;100.00;101953.88;5033873;28;47070;-79
2023/01/26 08:24:38;;;;;;;;;54.25;42.50;;;;;5.71;100.00;101940.53;5055557;28;45499;-78
2023/01/26 08:27:03;;;;;;;;;55.25;40.75;;;;;5.81;100.00;101940.53;5025940;28;45801;-79
2023/01/26 08:29:29;;;;;;;;;58.25;42.75;;;;;5.90;100.00;101953.25;5037752;28;45717;-78
2023/01/26 08:31:55;;;;;;;;;55.25;43.25;;;;;5.96;100.00;101955.38;5056546;28;46208;-78
2023/01/26 08:34:25;;;;;;;;;55.00;42.50;;;;;6.01;100.00;101960.41;5043046;28;45483;-80
2023/01/26 08:36:51;;;;;;;;;53.75;39.75;;;;;6.00;100.00;101953.22;5051884;28;45543;-79
2023/01/26 08:39:16;;;;;;;;;59.50;41.75;;;;;6.07;100.00;101967.13;5038716;28;45958;-82
2023/01/26 08:41:42;;;;;;;;;53.50;39.50;;;;;6.08;100.00;101974.25;5072903;27;46451;-80
2023/01/26 08:44:09;;;;;;;;;57.50;42.75;;;;;6.16;100.00;101972.50;5070222;27;45730;-79
2023/01/26 08:46:35;;;;;;;;;60.25;44.50;;;;;6.09;100.00;101975.97;5045176;28;45323;-80
2023/01/26 08:49:00;;;;;;;;;55.75;42.50;;;;;6.08;100.00;101990.59;5063170;28;45871;-79
2023/01/26 08:51:26;;;;;;;;;54.00;42.00;;;;;5.94;100.00;101986.47;5074579;27;46391;-79
2023/01/26 08:53:53;;;;;;;;;58.75;44.00;;;;;5.92;100.00;101996.66;5079253;27;45762;-78
2023/01/26 08:56:19;;;;;;;;;55.00;40.50;;;;;5.91;100.00;101984.03;5052714;28;45552;-79
2023/01/26 08:58:45;;;;;;;;;64.75;45.00;;;;;5.94;100.00;101987.34;5047812;28;47101;-79
2023/01/26 09:01:13;;;;;;;;;58.50;41.50;;;;;5.98;100.00;101991.50;5067019;28;45548;-79
2023/01/26 09:03:38;;;;;;;;;57.75;39.50;;;;;5.95;100.00;101990.91;5049963;28;45814;-78
2023/01/26 09:06:05;;;;;;;;;56.25;37.50;;;;;5.81;100.00;101959.56;5077245;27;45743;-79
2023/01/26 09:08:31;;;;;;;;;57.50;43.25;;;;;6.03;100.00;101980.16;5068227;28;46116;-77
2023/01/26 09:10:57;;;;;;;;;55.25;43.25;;;;;6.07;100.00;101973.41;5064951;27;46408;-78
2023/01/26 09:13:23;;;;;;;;;53.75;40.50;;;;;6.19;100.00;101988.56;5066775;28;45678;-78
2023/01/26 09:15:48;;;;;;;;;63.25;46.25;;;;;6.28;100.00;101992.25;5070304;27;45770;-77
2023/01/26 09:18:14;;;;;;;;;62.00;45.50;;;;;6.32;100.00;101985.50;5054491;28;45969;-81
2023/01/26 09:20:39;;;;;;;;;53.50;42.50;;;;;6.39;100.00;102002.09;5067400;27;47026;-78
2023/01/26 09:23:05;;;;;;;;;62.75;44.00;;;;;6.32;100.00;101995.56;5062697;28;45498;-79
2023/01/26 09:25:31;;;;;;;;;50.50;40.25;;;;;6.37;100.00;101987.78;5045748;28;45778;-78
2023/01/26 09:27:57;;;;;;;;;61.25;43.25;;;;;6.45;100.00;101996.06;5070037;28;45516;-79
2023/01/26 09:30:25;;;;;;;;;51.75;42.50;;;;;6.58;100.00;102003.88;5049973;28;45864;-78
2023/01/26 09:32:51;;;;;;;;;60.50;44.75;;;;;6.66;100.00;102005.84;5058827;27;45680;-78
2023/01/26 09:35:17;;;;;;;;;54.75;40.00;;;;;6.74;100.00;101991.44;5059249;27;45862;-79
2023/01/26 09:37:43;;;;;;;;;48.75;40.00;;;;;6.91;100.00;102012.44;5072985;27;45441;-80
2023/01/26 09:40:17;;;;;;;;;61.00;44.25;;;;;6.94;100.00;102005.81;5058734;28;45912;-77
2023/01/26 09:43:08;;;;;;;;;60.75;41.50;;;;;6.97;100.00;102008.25;5072100;27;45901;-78
2023/01/26 09:46:12;;;;;;;;;56.00;41.00;;;;;6.92;100.00;102018.75;5072487;27;45620;-78
2023/01/26 09:49:01;;;;;;;;;58.00;44.00;;;;;6.84;100.00;102006.75;5049007;28;45934;-80
2023/01/26 09:51:47;;;;;;;;;57.00;41.75;;;;;7.02;100.00;102022.25;5047733;27;47526;-80
2023/01/26 09:54:37;;;;;;;;;54.50;42.50;;;;;7.18;100.00;102019.69;5039563;28;45871;-78
2023/01/26 09:57:18;;;;;;;;;56.00;40.75;;;;;7.22;100.00;102006.63;5054574;27;45431;-79
2023/01/26 09:59:59;;;;;;;;;51.25;41.00;;;;;7.33;100.00;102013.72;5059057;28;45509;-80
2023/01/26 10:03:02;;;;;;;;;52.75;39.50;;;;;7.32;100.00;102014.72;5074448;27;46225;-77
2023/01/26 10:05:54;;;;;;;;;50.50;38.50;;;;;7.35;100.00;102017.13;5079697;27;45727;-79
2023/01/26 10:08:24;;;;;;;;;58.50;42.25;;;;;7.29;100.00;102007.72;5054178;28;45432;-78
2023/01/26 10:10:54;;;;;;;;;53.25;39.25;;;;;7.43;100.00;102011.75;5082227;27;45854;-81
2023/01/26 10:13:22;;;;;;;;;61.00;43.00;;;;;7.50;100.00;102020.16;5072154;27;46841;-81
2023/01/26 10:15:55;;;;;;;;;54.00;39.75;;;;;7.58;100.00;102014.78;5072502;28;45469;-81
2023/01/26 10:18:52;;;;;;;;;51.75;39.00;;;;;7.67;100.00;102023.91;5074233;28;45462;-81
2023/01/26 10:21:23;;;;;;;;;52.75;40.00;;;;;7.72;100.00;102013.34;5072831;27;46045;-81
2023/01/26 10:23:51;;;;;;;;;44.75;35.00;;;;;7.70;100.00;101999.88;5073968;28;46192;-80
2023/01/26 10:26:19;;;;;;;;;50.50;38.25;;;;;7.77;100.00;101997.38;5072975;28;45576;-80
2023/01/26 10:28:48;;;;;;;;;45.25;36.00;;;;;7.99;100.00;102014.25;5053830;28;45752;-78
2023/01/26 10:31:26;;;;;;;;;49.75;36.75;;;;;8.00;100.00;102008.63;5062066;28;45500;-81
2023/01/26 10:34:01;;;;;;;;;42.75;33.50;;;;;8.03;100.00;101997.34;5066172;27;47557;-81
2023/01/26 10:36:32;;;;;;;;;95.25;80.25;;;;;8.29;100.00;102024.69;5054725;28;45777;-82
2023/01/26 10:39:05;;;;;;;;;77.50;60.75;;;;;8.39;100.00;102032.75;5069361;27;45724;-81
2023/01/26 10:41:31;;;;;;;;;65.75;53.75;;;;;8.43;100.00;102025.94;5071372;28;45835;-81
2023/01/26 10:43:58;;;;;;;;;53.50;42.00;;;;;8.54;100.00;102019.34;5049743;28;46977;-81
2023/01/26 10:46:25;;;;;;;;;49.75;38.25;;;;;8.59;100.00;102013.41;5052300;28;45384;-82
2023/01/26 10:49:16;;;;;;;;;48.00;37.50;;;;;8.54;100.00;102002.94;5069709;27;45790;-81
2023/01/26 10:51:44;;;;;;;;;46.25;36.25;;;;;8.49;100.00;101980.72;5053281;28;45999;-81
2023/01/26 10:54:25;;;;;;;;;47.00;36.00;;;;;8.54;100.00;101988.44;5048122;28;46490;-81
2023/01/26 10:57:08;;;;;;;;;44.33;32.33;;;;;8.72;100.00;102008.31;5071541;27;45559;-80
2023/01/26 10:59:39;;;;;;;;;38.00;31.00;;;;;8.69;100.00;101983.19;5073842;27;45483;-82
2023/01/26 11:02:11;;;;;;;;;40.75;32.75;;;;;8.86;100.00;102003.22;5039740;28;46209;-83
2023/01/26 11:04:38;;;;;;;;;38.00;32.67;;;;;8.87;100.00;101997.59;5044545;28;46895;-82
2023/01/26 11:07:25;;;;;;;;;38.67;31.67;;;;;8.93;100.00;101996.06;5075233;27;45532;-82
2023/01/26 11:09:51;;;;;;;;;40.33;32.00;;;;;8.78;100.00;101969.34;5068772;27;45840;-82
2023/01/26 11:12:18;;;;;;;;;39.00;31.67;;;;;9.00;100.00;101997.13;5066694;28;45521;-80
2023/01/26 11:15:00;;;;;;;;;29.00;26.00;;;;;9.04;100.00;101990.28;5071429;28;46198;-83
2023/01/26 11:17:35;;;;;;;;;35.00;30.67;;;;;9.12;100.00;101993.03;5054666;28;45843;-81
2023/01/26 11:20:31;;;;;;;;;43.33;32.00;;;;;9.25;100.00;101988.94;5062756;28;46008;-81
2023/01/26 11:23:21;;;;;;;;;43.67;32.33;;;;;9.35;100.00;101986.91;5051145;28;47058;-81
2023/01/26 11:26:08;;;;;;;;;34.33;30.33;;;;;9.43;100.00;101981.44;5065051;28;46777;-79
2023/01/26 11:28:55;;;;;;;;;36.67;20.33;;;;;9.43;100.00;101980.56;5064816;27;45520;-78
2023/01/26 11:31:36;;;;;;;;;43.33;33.00;;;;;9.45;100.00;101989.50;5065466;27;45797;-77
2023/01/26 11:34:19;;;;;;;;;37.00;29.67;;;;;9.42;100.00;101981.63;5060205;27;45784;-77
2023/01/26 11:37:00;;;;;;;;;30.67;27.67;;;;;9.43;100.00;101980.56;5062661;27;46180;-79
2023/01/26 11:39:37;;;;;;;;;30.00;27.00;;;;;9.38;100.00;101974.75;5083818;27;45684;-87
2023/01/26 11:42:31;;;;;;;;;41.33;31.00;;;;;9.26;100.00;101972.34;5058794;27;45419;-82
2023/01/26 11:45:17;;;;;;;;;44.67;29.67;;;;;9.08;100.00;101972.50;5051459;28;46093;-82
2023/01/26 11:47:57;;;;;;;;;34.67;22.67;;;;;9.02;100.00;101979.50;5058846;27;47376;-81
2023/01/26 11:50:25;;;;;;;;;28.33;23.00;;;;;8.84;100.00;101981.50;5069050;27;45549;-81
2023/01/26 11:53:09;;;;;;;;;28.33;26.00;;;;;8.70;100.00;101982.16;5084910;27;45661;-82
2023/01/26 11:55:34;;;;;;;;;30.00;28.00;;;;;8.61;100.00;101990.34;5084822;27;45856;-81
2023/01/26 11:58:04;;;;;;;;;19.33;16.00;;;;;8.36;100.00;101983.03;5080267;27;46750;-79
2023/01/26 12:00:35;;;;;;;;;26.67;21.33;;;;;8.18;100.00;101981.22;5059595;27;45411;-81
2023/01/26 12:03:04;;;;;;;;;17.33;16.33;;;;;7.66;100.00;101937.56;5067407;27;45964;-81
2023/01/26 12:05:45;;;;;;;;;25.33;22.00;;;;;7.64;100.00;101978.66;5071016;28;45502;-82
2023/01/26 12:08:28;;;;;;;;;23.67;20.33;;;;;7.31;100.00;101961.19;5069376;27;46059;-84
2023/01/26 12:11:21;;;;;;;;;16.00;15.67;;;;;7.38;100.00;101968.56;5057299;27;45719;-84
2023/01/26 12:14:15;;;;;;;;;18.00;18.00;;;;;7.37;100.00;101966.00;5068555;27;46136;-85
2023/01/26 12:17:04;;;;;;;;;24.33;18.00;;;;;7.28;100.00;101956.03;5058919;28;46292;-85